createdAt,value
2017-12-05T07:34:55.720Z,85.90
2017-12-05T07:37:24.013Z,86.10
2017-12-05T07:39:51.528Z,86.00
2017-12-05T07:42:19.022Z,86.10
2017-12-05T07:44:46.533Z,86.00
2017-12-05T07:47:14.812Z,86.20
2017-12-05T07:49:42.333Z,86.20
2017-12-05T07:52:09.840Z,86.20
2017-12-05T07:54:37.355Z,86.30
2017-12-05T07:57:04.873Z,86.30
2017-12-05T07:59:33.141Z,86.30
2017-12-05T08:02:01.425Z,86.60
2017-12-05T08:04:29.717Z,86.60
2017-12-05T08:06:57.218Z,86.60
2017-12-05T08:09:24.752Z,86.50
2017-12-05T08:11:52.302Z,86.30
2017-12-05T08:14:20.579Z,86.20
2017-12-05T08:16:48.085Z,86.20
2017-12-05T08:19:15.623Z,86.10
2017-12-05T08:21:43.128Z,85.90
2017-12-05T08:24:10.634Z,85.50
2017-12-05T08:26:38.156Z,85.40
2017-12-05T08:29:05.652Z,85.40
2017-12-05T08:31:33.210Z,85.60
2017-12-05T08:34:00.713Z,85.80
2017-12-05T08:36:28.208Z,85.70
2017-12-05T08:38:55.721Z,85.70
2017-12-05T08:41:23.985Z,85.70
2017-12-05T08:43:51.509Z,85.70
2017-12-05T08:46:19.004Z,86.40
2017-12-05T08:48:47.304Z,85.20
2017-12-05T08:51:14.791Z,85.10
2017-12-05T08:53:42.299Z,85.00
2017-12-05T08:56:10.584Z,85.20
2017-12-05T08:58:38.098Z,85.20
2017-12-05T09:01:05.625Z,85.30
2017-12-05T09:03:33.122Z,85.10
2017-12-05T09:06:00.644Z,85.00
2017-12-05T09:08:28.152Z,84.90
2017-12-05T09:10:56.457Z,85.10
2017-12-05T09:13:24.660Z,85.00
2017-12-05T09:15:52.188Z,85.20
2017-12-05T09:18:19.714Z,85.40
2017-12-05T09:20:47.217Z,85.50
2017-12-05T09:23:14.716Z,85.30
2017-12-05T09:25:43.027Z,85.70
2017-12-05T09:28:10.524Z,85.60
2017-12-05T09:30:38.028Z,85.60
2017-12-05T09:33:06.424Z,85.00
2017-12-05T09:35:33.929Z,85.00
2017-12-05T09:38:01.452Z,84.80
2017-12-05T09:40:28.979Z,84.90
2017-12-05T09:42:56.508Z,84.20
2017-12-05T09:45:24.023Z,84.00
2017-12-05T09:47:51.520Z,83.70
2017-12-05T09:50:19.046Z,83.20
2017-12-05T09:52:46.547Z,82.60
2017-12-05T09:55:14.061Z,81.30
2017-12-05T09:57:41.568Z,80.80
2017-12-05T10:00:09.065Z,80.60
2017-12-05T10:02:36.556Z,79.50
2017-12-05T10:05:04.078Z,79.20
2017-12-05T10:07:31.573Z,78.30
2017-12-05T10:09:59.086Z,78.90
2017-12-05T10:12:26.641Z,78.60
2017-12-05T10:14:54.133Z,77.70
2017-12-05T10:17:21.628Z,77.50
2017-12-05T10:19:49.162Z,77.30
2017-12-05T10:22:16.666Z,77.20
2017-12-05T10:24:44.160Z,77.40
2017-12-05T10:27:11.673Z,77.10
2017-12-05T10:29:39.933Z,76.80
2017-12-05T10:32:08.230Z,76.80
2017-12-05T10:34:35.716Z,76.60
2017-12-05T10:37:03.248Z,76.90
2017-12-05T10:39:30.739Z,77.00
2017-12-05T10:41:58.240Z,76.90
2017-12-05T10:44:26.520Z,76.20
2017-12-05T10:46:54.789Z,76.20
2017-12-05T10:49:22.321Z,76.20
2017-12-05T10:51:49.814Z,76.50
2017-12-05T10:54:18.148Z,76.90
2017-12-05T10:56:45.641Z,76.90
2017-12-05T10:59:13.917Z,77.50
2017-12-05T11:01:42.198Z,78.00
2017-12-05T11:04:10.611Z,78.20
2017-12-05T11:06:38.110Z,78.20
2017-12-05T11:09:05.635Z,78.30
2017-12-05T11:11:33.161Z,78.50
2017-12-05T11:14:00.658Z,78.70
2017-12-05T11:16:28.184Z,78.70
2017-12-05T11:18:55.705Z,79.00
2017-12-05T11:21:23.208Z,79.10
2017-12-05T11:23:50.716Z,79.40
2017-12-05T11:26:18.984Z,79.50
2017-12-05T11:28:46.521Z,79.50
2017-12-05T11:31:14.030Z,79.60
2017-12-05T11:33:42.285Z,79.60
2017-12-05T11:36:09.835Z,79.60
2017-12-05T11:38:37.349Z,79.40
2017-12-05T11:41:04.872Z,79.40
2017-12-05T11:43:33.140Z,79.30
2017-12-05T11:46:01.423Z,79.60
2017-12-05T11:48:29.685Z,79.20
2017-12-05T11:50:57.221Z,79.10
2017-12-05T11:53:24.712Z,79.20
2017-12-05T11:55:53.007Z,78.80
2017-12-05T11:58:20.529Z,78.70
2017-12-05T12:00:48.068Z,78.70
2017-12-05T12:03:15.573Z,78.70
2017-12-05T12:05:43.105Z,78.70
2017-12-05T12:08:10.608Z,78.40
2017-12-05T12:10:38.136Z,78.30
2017-12-05T12:13:05.645Z,77.90
2017-12-05T12:15:33.146Z,77.90
2017-12-05T12:18:01.444Z,77.60
2017-12-05T12:20:28.968Z,77.50
2017-12-05T12:22:56.477Z,77.00
2017-12-05T12:25:23.997Z,77.80
2017-12-05T12:27:52.288Z,76.60
2017-12-05T12:30:19.829Z,76.50
2017-12-05T12:32:48.092Z,76.20
2017-12-05T12:35:15.623Z,76.20
2017-12-05T12:37:43.119Z,76.30
2017-12-05T12:40:11.445Z,76.10
2017-12-05T12:42:38.957Z,76.10
2017-12-05T12:45:07.234Z,75.80
2017-12-05T12:47:35.533Z,75.40
2017-12-05T12:50:03.048Z,75.40
2017-12-05T12:52:30.545Z,75.50
2017-12-05T12:54:58.062Z,76.00
2017-12-05T12:57:25.573Z,75.20
2017-12-05T12:59:53.113Z,75.20
2017-12-05T13:02:20.650Z,75.30
2017-12-05T13:04:48.944Z,75.10
2017-12-05T13:07:16.456Z,75.00
2017-12-05T13:09:43.969Z,74.70
2017-12-05T13:12:11.496Z,75.40
2017-12-05T13:14:39.771Z,74.40
2017-12-05T13:17:08.073Z,73.90
2017-12-05T13:19:35.584Z,73.90
2017-12-05T13:22:03.109Z,73.80
2017-12-05T13:24:30.653Z,73.60
2017-12-05T13:26:58.153Z,73.60
2017-12-05T13:29:25.644Z,73.00
2017-12-05T13:31:53.936Z,72.80
2017-12-05T13:34:21.432Z,72.80
2017-12-05T13:36:48.973Z,73.10
2017-12-05T13:39:16.522Z,72.60
2017-12-05T13:41:44.037Z,72.80
2017-12-05T13:44:12.322Z,73.00
2017-12-05T13:46:40.610Z,72.50
2017-12-05T13:49:08.112Z,72.50
2017-12-05T13:51:35.718Z,71.80
2017-12-05T13:54:03.974Z,71.80
2017-12-05T13:56:32.259Z,71.90
2017-12-05T13:59:00.542Z,71.80
2017-12-05T14:01:28.094Z,71.70
2017-12-05T14:03:56.397Z,71.80
2017-12-05T14:06:23.893Z,71.70
2017-12-05T14:08:51.411Z,71.70
2017-12-05T14:11:18.944Z,71.80
2017-12-05T14:13:47.205Z,71.70
2017-12-05T14:16:14.744Z,71.60
2017-12-05T14:18:42.246Z,72.70
2017-12-05T14:21:09.780Z,71.90
2017-12-05T14:23:38.068Z,71.90
2017-12-05T14:26:06.325Z,71.60
2017-12-05T14:28:33.908Z,71.60
2017-12-05T14:31:01.437Z,71.80
2017-12-05T14:33:28.964Z,72.00
2017-12-05T14:35:56.481Z,71.70
2017-12-05T14:38:23.998Z,71.80
2017-12-05T14:40:51.517Z,72.10
2017-12-05T14:43:19.034Z,72.10
2017-12-05T14:45:47.334Z,72.50
2017-12-05T14:48:14.833Z,72.10
2017-12-05T14:50:42.341Z,72.10
2017-12-05T14:53:10.641Z,71.70
2017-12-05T14:55:38.164Z,71.60
2017-12-05T14:58:06.468Z,71.50
2017-12-05T15:00:33.974Z,71.50
2017-12-05T15:03:01.472Z,71.70
2017-12-05T15:05:28.997Z,71.70
2017-12-05T15:07:56.598Z,71.80
2017-12-05T15:10:24.097Z,71.80
2017-12-05T15:12:51.655Z,71.60
2017-12-05T15:15:19.197Z,72.10
2017-12-05T15:17:46.733Z,72.10
2017-12-05T15:20:14.236Z,72.00
2017-12-05T15:22:41.782Z,71.80
2017-12-05T15:25:09.304Z,71.90
2017-12-05T15:27:37.633Z,71.70
2017-12-05T15:30:06.670Z,71.70
2017-12-05T15:32:34.171Z,71.60
2017-12-05T15:35:01.711Z,71.90
2017-12-05T15:37:29.243Z,72.00
2017-12-05T15:39:56.744Z,72.20
2017-12-05T15:42:24.293Z,71.90
2017-12-05T15:44:51.813Z,71.90
2017-12-05T15:47:19.404Z,72.20
2017-12-05T15:49:46.980Z,71.90
2017-12-05T15:52:14.543Z,72.00
2017-12-05T15:54:42.111Z,72.90
2017-12-05T15:57:10.401Z,71.90
2017-12-05T15:59:38.722Z,72.10
2017-12-05T16:02:06.247Z,72.00
2017-12-05T16:04:33.767Z,71.80
2017-12-05T16:07:01.317Z,71.70
2017-12-05T16:09:28.824Z,71.80
2017-12-05T16:11:56.357Z,71.70
2017-12-05T16:14:24.617Z,72.00
2017-12-05T16:16:52.156Z,71.60
2017-12-05T16:19:19.697Z,71.80
2017-12-05T16:21:47.198Z,71.80
2017-12-05T16:24:14.741Z,71.90
2017-12-05T16:26:42.304Z,71.80
2017-12-05T16:29:09.890Z,72.10
2017-12-05T16:31:38.284Z,72.00
2017-12-05T16:34:05.854Z,72.00
2017-12-05T16:36:33.432Z,71.90
2017-12-05T16:39:00.969Z,72.00
2017-12-05T16:41:28.481Z,72.10
2017-12-05T16:43:56.067Z,72.30
2017-12-05T16:46:23.594Z,72.40
2017-12-05T16:48:51.138Z,72.50
2017-12-05T16:51:18.716Z,72.60
2017-12-05T16:53:46.231Z,72.70
2017-12-05T16:56:13.742Z,72.80
2017-12-05T16:58:41.258Z,72.80
2017-12-05T17:01:08.828Z,72.90
2017-12-05T17:03:36.338Z,73.10
2017-12-05T17:06:03.887Z,73.10
2017-12-05T17:08:32.174Z,73.20
2017-12-05T17:10:59.730Z,73.20
2017-12-05T17:13:27.281Z,73.30
2017-12-05T17:15:55.564Z,73.50
2017-12-05T17:18:23.129Z,73.40
2017-12-05T17:20:50.640Z,73.40
2017-12-05T17:23:18.180Z,73.30
2017-12-05T17:25:45.696Z,73.00
2017-12-05T17:28:13.218Z,72.40
2017-12-05T17:30:40.784Z,72.20
2017-12-05T17:33:08.298Z,71.90
2017-12-05T17:35:35.819Z,71.80
2017-12-05T17:38:04.140Z,71.90
2017-12-05T17:40:31.666Z,71.90
2017-12-05T17:42:59.191Z,71.90
2017-12-05T17:45:26.748Z,71.60
2017-12-05T17:47:54.255Z,72.00
2017-12-05T17:50:21.813Z,71.60
2017-12-05T17:52:49.312Z,71.40
2017-12-05T17:55:16.864Z,71.70
2017-12-05T17:57:44.406Z,71.80
2017-12-05T18:00:11.949Z,71.90
2017-12-05T18:02:39.477Z,71.90
2017-12-05T18:05:07.819Z,72.00
2017-12-05T18:07:35.393Z,72.00
2017-12-05T18:10:02.912Z,71.70
2017-12-05T18:12:30.435Z,71.50
2017-12-05T18:14:58.002Z,71.60
2017-12-05T18:17:25.509Z,71.80
2017-12-05T18:19:53.014Z,71.70
2017-12-05T18:22:20.552Z,81.90
2017-12-05T18:24:48.879Z,82.00
2017-12-05T18:27:16.454Z,82.00
2017-12-05T18:29:43.981Z,81.00
2017-12-05T18:32:11.520Z,78.30
2017-12-05T18:34:39.160Z,76.10
2017-12-05T18:37:07.472Z,72.60
2017-12-05T18:39:35.006Z,72.50
2017-12-05T18:42:03.294Z,68.50
2017-12-05T18:44:30.851Z,68.50
2017-12-05T18:46:58.374Z,68.10
2017-12-05T18:49:25.906Z,67.90
2017-12-05T18:51:53.464Z,69.00
2017-12-05T18:54:20.997Z,68.50
2017-12-05T18:56:48.560Z,68.50
2017-12-05T18:59:16.080Z,68.70
2017-12-05T19:01:44.348Z,69.10
2017-12-05T19:04:13.491Z,69.10
2017-12-05T19:06:41.840Z,69.10
2017-12-05T19:09:09.358Z,69.20
2017-12-05T19:11:36.879Z,69.10
2017-12-05T19:14:04.422Z,69.50
2017-12-05T19:16:31.995Z,69.30
2017-12-05T19:18:59.539Z,69.50
2017-12-05T19:21:27.117Z,69.60
2017-12-05T19:23:54.664Z,69.50
2017-12-05T19:26:22.208Z,69.70
2017-12-05T19:28:49.757Z,69.80
2017-12-05T19:31:18.016Z,69.70
2017-12-05T19:33:46.381Z,69.50
2017-12-05T19:36:13.996Z,69.50
2017-12-05T19:38:41.501Z,69.80
2017-12-05T19:41:09.048Z,69.70
2017-12-05T19:43:36.589Z,69.60
2017-12-05T19:46:04.226Z,69.50
2017-12-05T19:48:31.756Z,69.50
2017-12-05T19:50:59.311Z,69.30
2017-12-05T19:53:27.935Z,69.40
2017-12-05T19:55:55.799Z,69.40
2017-12-05T19:58:23.669Z,69.40
2017-12-05T20:00:51.729Z,69.40
2017-12-05T20:03:19.700Z,69.30
2017-12-05T20:05:47.975Z,69.40
2017-12-05T20:08:16.662Z,69.80
2017-12-05T20:10:44.526Z,69.70
2017-12-05T20:13:12.400Z,69.70
2017-12-05T20:15:41.182Z,70.10
2017-12-05T20:18:09.043Z,69.90
2017-12-05T20:20:36.742Z,69.70
2017-12-05T20:23:04.504Z,69.70
2017-12-05T20:25:32.990Z,69.90
2017-12-05T20:28:01.349Z,70.10
2017-12-05T20:30:28.901Z,70.10
2017-12-05T20:32:56.427Z,70.20
2017-12-05T20:35:24.002Z,70.40
2017-12-05T20:37:51.660Z,70.30
2017-12-05T20:40:19.525Z,70.00
2017-12-05T20:42:47.494Z,70.00
2017-12-05T20:45:15.478Z,70.00
2017-12-05T20:47:44.249Z,70.00
2017-12-05T20:50:12.219Z,69.80
2017-12-05T20:52:40.290Z,70.00
2017-12-05T20:55:08.255Z,69.50
2017-12-05T20:57:37.757Z,69.70
2017-12-05T21:00:05.728Z,69.70
2017-12-05T21:02:33.694Z,69.50
2017-12-05T21:05:01.764Z,69.70
2017-12-05T21:07:29.754Z,69.80
2017-12-05T21:09:58.627Z,69.50
2017-12-05T21:12:26.609Z,69.50
2017-12-05T21:14:54.565Z,69.30
2017-12-05T21:17:22.638Z,69.60
2017-12-05T21:19:50.504Z,69.50
2017-12-05T21:22:18.564Z,69.70
2017-12-05T21:24:46.534Z,69.40
2017-12-05T21:27:14.501Z,69.60
2017-12-05T21:29:43.288Z,69.50
2017-12-05T21:32:11.257Z,69.50
2017-12-05T21:34:39.338Z,69.20
2017-12-05T21:37:08.023Z,69.60
2017-12-05T21:39:35.879Z,69.20
2017-12-05T21:42:03.748Z,69.60
2017-12-05T21:44:31.639Z,69.60
2017-12-05T21:46:59.412Z,69.70
2017-12-05T21:49:27.047Z,70.00
2017-12-05T21:51:54.653Z,70.10
2017-12-05T21:54:22.945Z,69.80
2017-12-05T21:56:50.523Z,69.70
2017-12-05T21:59:18.051Z,69.80
2017-12-05T22:01:46.351Z,69.70
2017-12-05T22:04:13.911Z,69.60
2017-12-05T22:06:41.461Z,69.50
2017-12-05T22:09:09.107Z,69.50
2017-12-05T22:11:37.378Z,69.40
2017-12-05T22:14:05.706Z,69.40
2017-12-05T22:16:33.229Z,69.40
2017-12-05T22:19:00.825Z,69.50
2017-12-05T22:21:28.345Z,69.30
2017-12-05T22:23:55.890Z,69.50
2017-12-05T22:26:24.178Z,69.20
2017-12-05T22:28:51.691Z,69.20
2017-12-05T22:31:19.209Z,69.40
2017-12-05T22:33:46.789Z,69.50
2017-12-05T22:36:14.323Z,69.20
2017-12-05T22:38:41.814Z,69.30
2017-12-05T22:41:09.334Z,69.30
2017-12-05T22:43:36.878Z,69.40
2017-12-05T22:46:04.393Z,69.50
2017-12-05T22:48:31.937Z,69.40
2017-12-05T22:50:59.457Z,69.10
2017-12-05T22:53:27.013Z,68.60
2017-12-05T22:55:54.533Z,68.70
2017-12-05T22:58:22.050Z,69.10
2017-12-05T23:00:49.584Z,69.00
2017-12-05T23:03:17.090Z,68.60
2017-12-05T23:05:44.641Z,68.70
2017-12-05T23:08:12.148Z,68.60
2017-12-05T23:10:40.416Z,68.80
2017-12-05T23:13:08.704Z,68.20
2017-12-05T23:15:36.981Z,68.30
2017-12-05T23:18:05.278Z,68.40
2017-12-05T23:20:32.787Z,68.30
2017-12-05T23:23:00.297Z,68.50
2017-12-05T23:25:27.815Z,68.40
2017-12-05T23:27:56.089Z,68.40
2017-12-05T23:30:24.368Z,69.10
2017-12-05T23:32:52.633Z,68.20
2017-12-05T23:35:21.037Z,68.20
2017-12-05T23:37:48.533Z,68.20
2017-12-05T23:40:16.029Z,69.10
2017-12-05T23:42:43.590Z,68.30
2017-12-05T23:45:11.866Z,68.50
2017-12-05T23:47:40.173Z,68.20
2017-12-05T23:50:07.679Z,68.10
2017-12-05T23:52:35.191Z,68.10
2017-12-05T23:55:02.736Z,67.80
2017-12-05T23:57:30.235Z,67.80
2017-12-05T23:59:57.741Z,68.20
